createdAt,value
2022-12-08T00:00:51.948Z,29.37
2022-12-08T00:03:25.033Z,29.53
2022-12-08T00:06:07.983Z,27.27
2022-12-08T00:08:50.422Z,27.57
2022-12-08T00:11:20.849Z,26.80
2022-12-08T00:13:51.127Z,26.83
2022-12-08T00:16:21.384Z,31.60
2022-12-08T00:18:54.028Z,25.17
2022-12-08T00:21:23.939Z,24.67
2022-12-08T00:23:57.181Z,25.13
2022-12-08T00:26:27.589Z,24.37
2022-12-08T00:28:58.062Z,24.53
2022-12-08T00:31:28.024Z,31.77
2022-12-08T00:34:01.166Z,28.50
2022-12-08T00:36:31.474Z,29.53
2022-12-08T00:39:01.892Z,28.50
2022-12-08T00:41:59.458Z,28.67
2022-12-08T00:44:29.816Z,28.90
2022-12-08T00:47:00.018Z,28.27
2022-12-08T00:49:32.807Z,26.77
2022-12-08T00:52:02.855Z,32.50
2022-12-08T00:54:33.252Z,24.57
2022-12-08T00:57:03.192Z,25.63
2022-12-08T00:59:33.609Z,25.77
2022-12-08T01:02:03.580Z,27.60
2022-12-08T01:04:36.442Z,30.13
2022-12-08T01:07:06.767Z,25.00
2022-12-08T01:09:36.816Z,28.07
2022-12-08T01:12:08.298Z,26.27
2022-12-08T01:14:38.576Z,26.00
2022-12-08T01:17:08.946Z,26.97
2022-12-08T01:19:41.508Z,28.13
2022-12-08T01:22:11.552Z,25.10
2022-12-08T01:24:41.835Z,26.73
2022-12-08T01:27:11.855Z,24.90
2022-12-08T01:29:42.165Z,23.37
2022-12-08T01:32:12.793Z,23.33
2022-12-08T01:34:45.733Z,28.77
2022-12-08T01:37:15.975Z,26.27
2022-12-08T01:39:46.105Z,22.97
2022-12-08T01:42:23.665Z,24.33
2022-12-08T01:44:58.659Z,23.17
2022-12-08T01:47:31.340Z,26.05
2022-12-08T01:50:04.853Z,24.97
2022-12-08T01:52:40.156Z,22.42
2022-12-08T01:55:12.232Z,25.67
2022-12-08T01:57:46.206Z,26.30
2022-12-08T02:00:18.157Z,23.38
2022-12-08T02:03:00.987Z,23.37
2022-12-08T02:05:35.769Z,24.20
2022-12-08T02:08:08.460Z,26.77
2022-12-08T02:10:39.672Z,24.13
2022-12-08T02:13:12.288Z,26.63
2022-12-08T02:15:53.715Z,25.60
2022-12-08T02:18:31.738Z,21.00
2022-12-08T02:21:10.286Z,25.87
2022-12-08T02:23:49.189Z,25.10
2022-12-08T02:26:40.171Z,26.27
2022-12-08T02:29:37.716Z,23.67
2022-12-08T02:32:26.685Z,23.40
2022-12-08T02:35:05.566Z,23.10
2022-12-08T02:37:40.718Z,23.93
2022-12-08T02:40:13.623Z,22.40
2022-12-08T02:42:49.788Z,20.07
2022-12-08T02:45:22.941Z,26.97
2022-12-08T02:47:53.389Z,25.13
2022-12-08T02:50:26.333Z,21.80
2022-12-08T02:52:56.668Z,21.73
2022-12-08T02:55:29.641Z,26.47
2022-12-08T02:58:19.254Z,21.90
2022-12-08T03:00:54.941Z,22.87
2022-12-08T03:03:33.394Z,29.20
2022-12-08T03:06:09.417Z,23.83
2022-12-08T03:08:49.848Z,24.13
2022-12-08T03:11:23.229Z,25.73
2022-12-08T03:13:54.941Z,24.40
2022-12-08T03:16:27.219Z,23.63
2022-12-08T03:19:00.297Z,23.90
2022-12-08T03:21:33.584Z,23.13
2022-12-08T03:24:06.355Z,25.03
2022-12-08T03:26:38.496Z,24.53
2022-12-08T03:29:09.289Z,26.67
2022-12-08T03:31:42.540Z,28.67
2022-12-08T03:34:13.190Z,22.70
2022-12-08T03:36:46.820Z,23.80
2022-12-08T03:39:17.613Z,23.58
2022-12-08T03:41:48.309Z,21.40
2022-12-08T03:44:18.706Z,22.43
2022-12-08T03:46:48.983Z,24.63
2022-12-08T03:49:18.927Z,24.23
2022-12-08T03:51:51.783Z,23.20
2022-12-08T03:54:22.013Z,23.50
2022-12-08T03:56:52.288Z,24.00
2022-12-08T03:59:22.515Z,23.77
2022-12-08T04:01:52.942Z,19.90
2022-12-08T04:04:23.295Z,18.80
2022-12-08T04:06:55.860Z,23.20
2022-12-08T04:09:26.029Z,22.87
2022-12-08T04:11:56.014Z,16.93
2022-12-08T04:14:26.282Z,26.27
2022-12-08T04:16:58.773Z,23.90
2022-12-08T04:19:29.056Z,21.80
2022-12-08T04:22:01.743Z,21.53
2022-12-08T04:24:31.988Z,22.87
2022-12-08T04:27:01.951Z,27.57
2022-12-08T04:29:32.176Z,22.27
2022-12-08T04:32:02.173Z,21.80
2022-12-08T04:34:32.170Z,21.53
2022-12-08T04:37:04.755Z,25.37
2022-12-08T04:39:35.029Z,25.63
2022-12-08T04:42:05.386Z,22.90
2022-12-08T04:44:35.662Z,27.40
2022-12-08T04:47:05.959Z,24.73
2022-12-08T04:49:36.025Z,21.47
2022-12-08T04:52:09.031Z,24.27
2022-12-08T04:54:39.449Z,18.30
2022-12-08T04:57:09.697Z,20.63
2022-12-08T04:59:40.197Z,20.57
2022-12-08T05:02:10.784Z,21.97
2022-12-08T05:04:41.252Z,19.67
2022-12-08T05:07:14.113Z,19.47
2022-12-08T05:09:44.960Z,19.37
2022-12-08T05:12:14.929Z,23.63
2022-12-08T05:14:45.188Z,19.67
2022-12-08T05:17:15.517Z,23.93
2022-12-08T05:19:45.488Z,19.90
2022-12-08T05:22:18.391Z,21.90
2022-12-08T05:24:48.785Z,21.50
2022-12-08T05:27:18.826Z,24.50
2022-12-08T05:29:48.808Z,30.57
2022-12-08T05:32:19.121Z,24.07
2022-12-08T05:34:49.197Z,22.83
2022-12-08T05:37:22.040Z,21.20
2022-12-08T05:39:52.251Z,20.77
2022-12-08T05:42:24.935Z,24.73
2022-12-08T05:44:55.708Z,24.37
2022-12-08T05:47:25.900Z,21.67
2022-12-08T05:49:56.258Z,19.63
2022-12-08T05:52:29.186Z,20.17
2022-12-08T05:54:59.458Z,20.43
2022-12-08T05:57:29.744Z,22.13
2022-12-08T06:00:00.118Z,19.60
2022-12-08T06:02:30.584Z,26.53
2022-12-08T06:05:00.974Z,21.67
2022-12-08T06:07:33.875Z,23.47
2022-12-08T06:10:04.087Z,24.47
2022-12-08T06:12:34.602Z,25.40
2022-12-08T06:15:04.579Z,20.07
2022-12-08T06:17:34.864Z,22.50
2022-12-08T06:20:05.224Z,23.93
2022-12-08T06:22:38.643Z,19.57
2022-12-08T06:25:12.452Z,22.33
2022-12-08T06:27:42.404Z,24.17
2022-12-08T06:30:12.891Z,23.87
2022-12-08T06:32:43.019Z,19.10
2022-12-08T06:35:13.560Z,22.10
2022-12-08T06:37:46.362Z,23.27
2022-12-08T06:40:17.444Z,24.37
2022-12-08T06:42:47.841Z,25.77
2022-12-08T06:45:19.189Z,22.73
2022-12-08T06:47:49.432Z,24.13
2022-12-08T06:50:19.676Z,26.50
2022-12-08T06:53:01.054Z,21.97
2022-12-08T06:55:57.916Z,25.70
2022-12-08T06:58:25.213Z,26.57
2022-12-08T07:00:55.260Z,23.10
2022-12-08T07:03:25.670Z,27.77
2022-12-08T07:06:03.789Z,25.17
2022-12-08T07:08:37.713Z,27.80
2022-12-08T07:11:14.156Z,27.00
2022-12-08T07:13:46.963Z,30.10
2022-12-08T07:16:17.276Z,25.80
2022-12-08T07:18:47.298Z,25.77
2022-12-08T07:21:18.817Z,19.50
2022-12-08T07:23:57.385Z,25.87
2022-12-08T07:26:28.269Z,24.50
2022-12-08T07:28:58.534Z,29.40
2022-12-08T07:31:29.048Z,26.60
2022-12-08T07:33:59.693Z,23.70
2022-12-08T07:36:29.998Z,24.50
2022-12-08T07:39:02.744Z,23.30
2022-12-08T07:41:33.534Z,29.83
2022-12-08T07:44:04.346Z,23.30
2022-12-08T07:46:34.396Z,25.53
2022-12-08T07:49:04.647Z,24.07
2022-12-08T07:51:34.640Z,23.03
2022-12-08T07:54:07.560Z,31.83
2022-12-08T07:56:37.774Z,26.17
2022-12-08T07:59:08.101Z,22.63
2022-12-08T08:01:38.685Z,28.20
2022-12-08T08:04:09.119Z,25.77
2022-12-08T08:06:39.282Z,28.07
2022-12-08T08:09:12.094Z,25.80
2022-12-08T08:11:42.354Z,27.03
2022-12-08T08:14:12.588Z,24.20
2022-12-08T08:16:46.872Z,26.23
2022-12-08T08:21:46.988Z,25.07
2022-12-08T08:24:20.394Z,25.90
2022-12-08T08:26:50.665Z,24.33
2022-12-08T08:29:20.893Z,24.10
2022-12-08T08:31:51.104Z,25.97
2022-12-08T08:34:21.069Z,27.03
2022-12-08T08:36:51.340Z,20.90
2022-12-08T08:39:24.100Z,23.50
2022-12-08T08:41:54.060Z,28.77
2022-12-08T08:44:24.271Z,23.77
2022-12-08T08:46:54.321Z,26.57
2022-12-08T08:49:24.408Z,23.53
2022-12-08T08:51:54.659Z,22.77
2022-12-08T08:54:27.467Z,29.13
2022-12-08T08:56:57.691Z,25.73
2022-12-08T08:59:28.087Z,26.53
2022-12-08T09:01:58.564Z,25.03
2022-12-08T09:04:28.543Z,23.23
2022-12-08T09:06:59.497Z,27.97
2022-12-08T09:09:32.115Z,22.20
2022-12-08T09:12:02.042Z,27.80
2022-12-08T09:14:32.178Z,28.10
2022-12-08T09:17:02.161Z,27.10
2022-12-08T09:19:32.352Z,26.67
2022-12-08T09:22:02.612Z,28.43
2022-12-08T09:24:35.193Z,23.57
2022-12-08T09:27:05.491Z,24.77
2022-12-08T09:29:36.528Z,26.50
2022-12-08T09:32:07.553Z,26.00
2022-12-08T09:34:37.799Z,26.03
2022-12-08T09:37:08.033Z,23.97
2022-12-08T09:39:40.639Z,31.43
2022-12-08T09:42:10.881Z,24.50
2022-12-08T09:44:57.387Z,29.23
2022-12-08T09:47:35.474Z,26.33
2022-12-08T09:50:08.501Z,24.03
2022-12-08T09:52:48.843Z,26.90
2022-12-08T09:55:27.870Z,26.30
2022-12-08T09:58:06.022Z,27.87
2022-12-08T10:00:36.540Z,25.27
2022-12-08T10:03:06.814Z,20.23
2022-12-08T10:05:42.335Z,18.90
2022-12-08T10:08:21.514Z,19.52
2022-12-08T10:11:00.256Z,20.73
2022-12-08T10:13:42.108Z,19.77
2022-12-08T10:16:26.576Z,24.13
2022-12-08T10:19:01.011Z,25.17
2022-12-08T10:21:33.206Z,29.83
2022-12-08T10:24:07.542Z,21.37
2022-12-08T10:26:40.207Z,19.08
2022-12-08T10:29:15.216Z,19.23
2022-12-08T10:31:45.595Z,25.07
2022-12-08T10:34:20.111Z,24.27
2022-12-08T10:36:51.791Z,22.20
2022-12-08T10:39:43.961Z,18.73
2022-12-08T10:42:23.967Z,19.40
2022-12-08T10:44:57.929Z,17.13
2022-12-08T10:47:29.827Z,17.77
2022-12-08T10:50:17.814Z,17.80
2022-12-08T10:52:48.306Z,21.83
2022-12-08T10:55:19.756Z,18.47
2022-12-08T10:57:52.440Z,18.58
2022-12-08T11:00:24.201Z,17.75
2022-12-08T11:03:01.024Z,23.23
2022-12-08T11:05:35.118Z,20.88
2022-12-08T11:08:07.135Z,17.42
2022-12-08T11:10:39.446Z,17.23
2022-12-08T11:13:21.513Z,14.75
2022-12-08T11:15:53.425Z,15.63
2022-12-08T11:18:33.794Z,19.00
2022-12-08T11:21:09.018Z,18.08
2022-12-08T11:23:39.964Z,18.38
2022-12-08T11:26:24.815Z,16.23
2022-12-08T11:31:33.058Z,16.65
2022-12-08T11:34:04.714Z,13.75
2022-12-08T11:36:38.151Z,12.63
2022-12-08T11:39:08.626Z,17.83
2022-12-08T11:41:42.391Z,19.90
2022-12-08T11:44:26.777Z,11.65
2022-12-08T11:46:59.913Z,15.88
2022-12-08T11:49:37.171Z,10.65
2022-12-08T11:52:20.251Z,15.18
2022-12-08T11:54:55.516Z,14.88
2022-12-08T11:57:29.707Z,14.73
2022-12-08T12:00:04.812Z,14.70
2022-12-08T12:02:47.875Z,12.97
2022-12-08T12:06:05.497Z,13.93
2022-12-08T12:08:37.716Z,17.38
2022-12-08T12:11:37.266Z,16.10
2022-12-08T12:14:23.516Z,12.32
2022-12-08T12:17:03.514Z,15.25
2022-12-08T12:19:38.073Z,12.85
2022-12-08T12:22:17.306Z,15.65
2022-12-08T12:24:52.143Z,14.32
2022-12-08T12:27:30.583Z,15.98
2022-12-08T12:30:04.545Z,10.65
2022-12-08T12:32:49.545Z,13.63
2022-12-08T12:35:27.328Z,13.47
2022-12-08T12:38:03.036Z,14.07
2022-12-08T12:40:44.782Z,15.68
2022-12-08T12:43:24.354Z,10.90
2022-12-08T12:46:29.584Z,12.52
2022-12-08T12:49:37.294Z,15.32
2022-12-08T12:52:40.557Z,12.65
2022-12-08T12:55:28.635Z,15.10
2022-12-08T12:58:00.474Z,10.88
2022-12-08T13:00:31.138Z,13.90
2022-12-08T13:03:02.025Z,13.07
2022-12-08T13:05:34.952Z,12.20
2022-12-08T13:08:10.875Z,12.43
2022-12-08T13:10:42.507Z,10.33
2022-12-08T13:13:21.241Z,16.02
2022-12-08T13:15:53.830Z,11.48
2022-12-08T13:18:27.421Z,11.05
2022-12-08T13:21:03.545Z,12.70
2022-12-08T13:23:50.080Z,10.52
2022-12-08T13:26:23.652Z,12.60
2022-12-08T13:29:25.287Z,10.02
2022-12-08T13:31:56.205Z,12.13
2022-12-08T13:34:34.066Z,10.83
2022-12-08T13:37:16.373Z,11.27
2022-12-08T13:39:54.105Z,11.38
2022-12-08T13:42:32.191Z,10.03
2022-12-08T13:57:11.941Z,11.63
2022-12-08T13:59:47.742Z,13.57
2022-12-08T14:02:23.340Z,9.38
2022-12-08T14:05:17.628Z,11.77
2022-12-08T14:07:45.085Z,16.53
2022-12-08T14:10:21.643Z,11.02
2022-12-08T14:12:58.637Z,10.10
2022-12-08T14:15:34.069Z,8.63
2022-12-08T14:18:07.206Z,14.63
2022-12-08T14:21:12.103Z,10.57
2022-12-08T14:23:28.450Z,14.20
2022-12-08T14:25:59.285Z,11.05
2022-12-08T14:28:33.185Z,16.25
2022-12-08T14:31:03.735Z,11.77
2022-12-08T14:33:34.411Z,11.43
2022-12-08T14:36:04.382Z,14.13
2022-12-08T14:38:34.444Z,13.33
2022-12-08T14:41:06.793Z,10.87
2022-12-08T14:43:41.035Z,11.17
2022-12-08T14:46:23.424Z,13.77
2022-12-08T14:48:53.726Z,14.50
2022-12-08T14:51:31.612Z,11.45
2022-12-08T14:54:04.490Z,10.67
2022-12-08T14:56:39.605Z,10.67
2022-12-08T14:59:17.487Z,11.07
2022-12-08T15:01:48.303Z,10.77
2022-12-08T15:04:21.977Z,16.43
2022-12-08T15:06:55.340Z,8.40
2022-12-08T15:09:38.561Z,9.07
2022-12-08T15:12:10.404Z,10.33
2022-12-08T15:14:45.444Z,9.87
2022-12-08T15:17:32.595Z,10.07
2022-12-08T15:20:04.565Z,9.15
2022-12-08T15:22:34.855Z,8.30
2022-12-08T15:25:04.813Z,12.33
2022-12-08T15:27:42.363Z,10.30
2022-12-08T15:30:23.866Z,9.13
2022-12-08T15:32:54.329Z,10.52
2022-12-08T15:35:24.618Z,14.13
2022-12-08T15:37:54.884Z,17.07
2022-12-08T15:40:27.085Z,9.57
2022-12-08T15:42:57.358Z,10.80
2022-12-08T15:45:33.697Z,11.40
2022-12-08T15:48:03.966Z,11.97
2022-12-08T15:50:34.164Z,11.47
2022-12-08T15:53:04.412Z,11.27
2022-12-08T15:55:38.689Z,11.03
2022-12-08T16:01:02.091Z,9.00
2022-12-08T16:07:12.792Z,9.43
2022-12-08T16:09:20.022Z,9.73
2022-12-08T16:12:08.442Z,10.37
2022-12-08T16:17:34.702Z,14.30
2022-12-08T16:20:06.194Z,12.95
2022-12-08T16:22:56.732Z,8.73
2022-12-08T16:25:28.820Z,9.37
2022-12-08T16:28:23.105Z,9.53
2022-12-08T16:30:53.841Z,10.77
2022-12-08T16:33:26.647Z,10.20
2022-12-08T16:35:56.844Z,11.57
2022-12-08T16:38:27.073Z,10.97
2022-12-08T16:41:09.538Z,11.33
2022-12-08T16:43:39.476Z,12.68
2022-12-08T16:46:10.106Z,11.27
2022-12-08T16:48:44.834Z,11.70
2022-12-08T16:51:25.140Z,9.80
2022-12-08T16:53:58.484Z,11.48
2022-12-08T16:56:33.210Z,10.00
2022-12-08T16:59:04.480Z,13.13
2022-12-08T17:01:35.808Z,10.50
2022-12-08T17:04:31.517Z,12.07
2022-12-08T17:06:59.079Z,11.97
2022-12-08T17:09:30.790Z,10.57
2022-12-08T17:12:04.326Z,11.30
2022-12-08T17:14:36.157Z,9.20
2022-12-08T17:17:06.932Z,10.33
2022-12-08T17:19:39.877Z,12.60
2022-12-08T17:22:10.139Z,12.50
2022-12-08T17:24:40.872Z,10.50
2022-12-08T17:27:11.484Z,16.27
2022-12-08T17:29:41.691Z,10.33
2022-12-08T17:32:12.019Z,10.47
2022-12-08T17:34:45.882Z,14.60
2022-12-08T17:37:16.143Z,17.13
2022-12-08T17:39:46.517Z,9.33
2022-12-08T17:42:16.769Z,23.77
2022-12-08T17:44:47.050Z,21.13
2022-12-08T17:47:17.331Z,16.97
2022-12-08T17:49:50.165Z,18.63
2022-12-08T17:52:20.436Z,17.37
2022-12-08T17:54:50.681Z,15.10
2022-12-08T17:57:21.078Z,11.77
2022-12-08T17:59:51.362Z,13.75
2022-12-08T18:02:21.646Z,13.27
2022-12-08T18:04:54.537Z,14.80
2022-12-08T18:07:24.782Z,13.23
2022-12-08T18:09:55.089Z,12.95
2022-12-08T18:12:25.332Z,19.92
2022-12-08T18:14:55.600Z,13.73
2022-12-08T18:17:25.873Z,12.35
2022-12-08T18:20:03.066Z,14.57
2022-12-08T18:22:38.211Z,16.45
2022-12-08T18:25:08.981Z,11.33
2022-12-08T18:27:43.029Z,12.83
2022-12-08T18:32:43.793Z,12.65
2022-12-08T18:35:17.238Z,10.77
2022-12-08T18:37:47.574Z,7.70
2022-12-08T18:40:18.458Z,12.27
2022-12-08T18:42:48.997Z,12.45
2022-12-08T18:45:22.632Z,17.65
2022-12-08T18:47:54.185Z,15.45
2022-12-08T18:50:27.368Z,17.77
2022-12-08T18:52:58.760Z,19.33
2022-12-08T18:55:29.056Z,25.65
2022-12-08T18:57:59.484Z,18.87
2022-12-08T19:00:31.793Z,17.35
2022-12-08T19:03:02.089Z,14.93
2022-12-08T19:05:34.959Z,12.35
2022-12-08T19:08:05.278Z,14.52
2022-12-08T19:10:35.613Z,14.85
2022-12-08T19:13:05.883Z,11.60
2022-12-08T19:15:38.452Z,13.77
2022-12-08T19:18:08.817Z,16.37
2022-12-08T19:20:41.695Z,13.38
2022-12-08T19:23:11.974Z,10.10
2022-12-08T19:25:42.393Z,7.37
2022-12-08T19:28:12.687Z,9.73
2022-12-08T19:30:43.113Z,11.37
2022-12-08T19:33:13.401Z,11.50
2022-12-08T19:35:52.238Z,9.20
2022-12-08T19:38:23.204Z,11.47
2022-12-08T19:41:06.911Z,11.25
2022-12-08T19:43:49.733Z,9.50
2022-12-08T19:46:20.023Z,10.57
2022-12-08T19:48:50.427Z,5.20
2022-12-08T19:51:23.274Z,7.13
2022-12-08T19:53:55.596Z,9.00
2022-12-08T19:56:25.815Z,10.53
2022-12-08T19:58:56.085Z,8.03
2022-12-08T20:01:26.415Z,12.30
2022-12-08T20:03:56.802Z,12.27
2022-12-08T20:06:30.371Z,10.17
2022-12-08T20:09:00.666Z,11.18
2022-12-08T20:11:30.993Z,14.90
2022-12-08T20:14:01.252Z,12.23
2022-12-08T20:16:31.631Z,10.47
2022-12-08T20:19:02.114Z,12.23
2022-12-08T20:21:35.020Z,10.63
2022-12-08T20:24:05.286Z,11.27
2022-12-08T20:26:35.535Z,7.97
2022-12-08T20:29:05.863Z,11.47
2022-12-08T20:31:36.393Z,13.10
2022-12-08T20:34:06.772Z,10.77
2022-12-08T20:36:39.633Z,9.67
2022-12-08T20:39:12.717Z,8.60
2022-12-08T20:41:43.029Z,8.97
2022-12-08T20:44:13.513Z,13.23
2022-12-08T20:46:49.053Z,9.53
2022-12-08T20:49:19.827Z,12.33
2022-12-08T20:51:52.714Z,17.57
2022-12-08T20:54:23.117Z,13.83
2022-12-08T20:56:53.407Z,16.67
2022-12-08T20:59:23.634Z,23.43
2022-12-08T21:01:55.037Z,16.00
2022-12-08T21:04:25.685Z,13.57
2022-12-08T21:06:58.729Z,11.40
2022-12-08T21:09:29.119Z,12.00
2022-12-08T21:11:59.782Z,14.60
2022-12-08T21:14:30.118Z,16.17
2022-12-08T21:17:00.506Z,11.63
2022-12-08T21:19:30.963Z,13.40
2022-12-08T21:22:03.850Z,10.90
2022-12-08T21:24:34.949Z,10.07
2022-12-08T21:27:05.538Z,9.83
2022-12-08T21:29:35.865Z,11.10
2022-12-08T21:32:06.292Z,12.30
2022-12-08T21:34:37.068Z,10.97
2022-12-08T21:37:10.041Z,12.00
2022-12-08T21:39:40.387Z,12.00
2022-12-08T21:42:24.933Z,13.30
2022-12-08T21:44:56.958Z,14.20
2022-12-08T21:47:27.472Z,12.47
2022-12-08T21:49:57.836Z,13.53
2022-12-08T21:52:30.973Z,15.97
2022-12-08T21:55:01.330Z,13.23
2022-12-08T21:57:31.638Z,15.57
2022-12-08T22:00:02.134Z,18.23
2022-12-08T22:02:34.843Z,14.63
2022-12-08T22:05:05.688Z,12.20
2022-12-08T22:07:40.671Z,15.23
2022-12-08T22:10:12.877Z,13.00
2022-12-08T22:12:43.923Z,13.93
2022-12-08T22:15:14.798Z,15.10
2022-12-08T22:17:46.080Z,15.80
2022-12-08T22:20:17.649Z,14.80
2022-12-08T22:22:50.517Z,17.07
2022-12-08T22:25:21.087Z,18.13
2022-12-08T22:27:51.327Z,17.43
2022-12-08T22:30:21.649Z,16.80
2022-12-08T22:32:52.180Z,16.07
2022-12-08T22:35:22.807Z,13.17
2022-12-08T22:37:55.667Z,15.27
2022-12-08T22:40:26.184Z,12.47
2022-12-08T22:42:56.704Z,15.03
2022-12-08T22:45:27.167Z,13.80
2022-12-08T22:47:57.590Z,16.60
2022-12-08T22:50:28.053Z,13.47
2022-12-08T22:53:00.988Z,15.93
2022-12-08T22:55:31.309Z,15.87
2022-12-08T22:58:01.644Z,16.43
2022-12-08T23:00:31.999Z,20.17
2022-12-08T23:03:02.416Z,19.07
2022-12-08T23:05:35.140Z,20.10
2022-12-08T23:08:09.375Z,13.90
2022-12-08T23:10:39.694Z,17.52
2022-12-08T23:13:10.122Z,18.57
2022-12-08T23:15:40.530Z,17.07
2022-12-08T23:18:11.103Z,15.00
2022-12-08T23:20:41.387Z,18.50
2022-12-08T23:23:14.365Z,14.37
2022-12-08T23:25:44.836Z,17.80
2022-12-08T23:28:15.240Z,18.80
2022-12-08T23:30:45.699Z,16.10
2022-12-08T23:33:15.996Z,14.90
2022-12-08T23:35:46.650Z,15.30
2022-12-08T23:38:19.469Z,16.57
2022-12-08T23:40:49.804Z,16.13
2022-12-08T23:43:23.111Z,22.13
2022-12-08T23:45:53.405Z,26.23
2022-12-08T23:48:23.678Z,34.97
2022-12-08T23:50:53.951Z,29.63
2022-12-08T23:53:28.491Z,30.50
2022-12-08T23:56:02.336Z,23.83
2022-12-08T23:58:33.327Z,34.38
